createdAt,value
2018-06-17T00:00:23.340Z,101537.13
2018-06-17T00:02:52.070Z,101530.46
2018-06-17T00:05:20.666Z,101534.60
2018-06-17T00:07:49.818Z,101530.05
2018-06-17T00:10:18.655Z,101530.84
2018-06-17T00:12:47.428Z,101530.44
2018-06-17T00:15:16.614Z,101526.30
2018-06-17T00:17:45.387Z,101530.84
2018-06-17T00:20:14.172Z,101528.91
2018-06-17T00:22:43.268Z,101540.12
2018-06-17T00:25:12.043Z,101538.70
2018-06-17T00:27:40.733Z,101538.08
2018-06-17T00:30:09.939Z,101538.23
2018-06-17T00:32:38.700Z,101539.42
2018-06-17T00:35:07.734Z,101542.58
2018-06-17T00:37:36.819Z,101550.89
2018-06-17T00:40:05.774Z,101554.09
2018-06-17T00:42:34.588Z,101553.45
2018-06-17T00:45:04.009Z,101548.45
2018-06-17T00:47:32.748Z,101548.78
2018-06-17T00:50:01.744Z,101549.70
2018-06-17T00:52:30.572Z,101556.34
2018-06-17T00:54:59.335Z,101557.59
2018-06-17T00:57:45.911Z,101557.80
2018-06-17T01:00:14.503Z,101549.70
2018-06-17T01:02:43.733Z,101556.80
2018-06-17T01:05:12.973Z,101555.59
2018-06-17T01:07:41.799Z,101554.48
2018-06-17T01:10:10.451Z,101556.75
2018-06-17T01:12:39.947Z,101552.35
2018-06-17T01:15:08.908Z,101550.96
2018-06-17T01:17:38.268Z,101552.75
2018-06-17T01:20:08.155Z,101550.65
2018-06-17T01:22:37.731Z,101550.50
2018-06-17T01:25:06.590Z,101553.58
2018-06-17T01:27:35.751Z,101552.20
2018-06-17T01:30:04.991Z,101552.35
2018-06-17T01:32:33.724Z,101559.40
2018-06-17T01:35:02.797Z,101556.38
2018-06-17T01:37:31.551Z,101558.05
2018-06-17T01:40:00.386Z,101551.27
2018-06-17T01:42:29.425Z,101556.13
2018-06-17T01:44:58.174Z,101553.62
2018-06-17T01:47:26.986Z,101553.73
2018-06-17T01:49:55.771Z,101553.00
2018-06-17T01:52:24.575Z,101551.39
2018-06-17T01:54:53.400Z,101546.02
2018-06-17T01:57:22.571Z,101546.48
2018-06-17T01:59:51.350Z,101540.56
2018-06-17T02:02:20.083Z,101536.83
2018-06-17T02:04:54.975Z,101534.16
2018-06-17T02:07:31.355Z,101538.71
2018-06-17T02:10:06.136Z,101537.55
2018-06-17T02:12:34.879Z,101543.95
2018-06-17T02:15:04.636Z,101543.87
2018-06-17T02:17:33.767Z,101545.23
2018-06-17T02:20:02.543Z,101533.14
2018-06-17T02:22:31.303Z,101538.52
2018-06-17T02:25:00.206Z,101531.27
2018-06-17T02:27:29.017Z,101531.33
2018-06-17T02:29:57.763Z,101526.47
2018-06-17T02:32:26.713Z,101528.47
2018-06-17T02:34:55.499Z,101525.84
2018-06-17T02:37:24.266Z,101527.33
2018-06-17T02:39:53.442Z,101527.70
2018-06-17T02:42:22.447Z,101528.70
2018-06-17T02:44:57.123Z,101528.41
2018-06-17T02:47:31.610Z,101522.77
2018-06-17T02:50:06.509Z,101520.80
2018-06-17T02:52:40.767Z,101525.05
2018-06-17T02:55:09.847Z,101528.59
2018-06-17T02:57:38.951Z,101531.38
2018-06-17T03:00:07.787Z,101530.35
2018-06-17T03:02:36.838Z,101534.73
2018-06-17T03:05:05.721Z,101528.72
2018-06-17T03:07:34.571Z,101530.58
2018-06-17T03:10:04.055Z,101529.09
2018-06-17T03:12:32.782Z,101531.55
2018-06-17T03:15:01.524Z,101530.07
2018-06-17T03:17:30.571Z,101528.64
2018-06-17T03:19:59.372Z,101533.72
2018-06-17T03:22:28.115Z,101533.69
2018-06-17T03:25:02.531Z,101534.91
2018-06-17T03:27:36.826Z,101534.73
2018-06-17T03:30:11.753Z,101529.70
2018-06-17T03:32:46.059Z,101539.23
2018-06-17T03:35:20.735Z,101544.05
2018-06-17T03:37:49.699Z,101543.09
2018-06-17T03:40:18.434Z,101540.80
2018-06-17T03:42:47.407Z,101540.53
2018-06-17T03:45:22.256Z,101546.98
2018-06-17T03:47:51.299Z,101542.45
2018-06-17T03:50:20.050Z,101546.03
2018-06-17T03:52:48.776Z,101547.33
2018-06-17T03:55:17.910Z,101548.67
2018-06-17T03:57:46.640Z,101550.78
2018-06-17T04:00:15.204Z,101551.34
2018-06-17T04:02:44.586Z,101555.08
2018-06-17T04:05:18.875Z,101555.94
2018-06-17T04:07:48.071Z,101567.89
2018-06-17T04:10:16.863Z,101565.08
2018-06-17T04:12:45.418Z,101564.14
2018-06-17T04:15:14.335Z,101567.34
2018-06-17T04:17:43.071Z,101569.78
2018-06-17T04:20:11.891Z,101572.89
2018-06-17T04:22:40.843Z,101570.68
2018-06-17T04:25:09.624Z,101575.59
2018-06-17T04:27:38.342Z,101567.34
2018-06-17T04:30:07.442Z,101568.98
2018-06-17T04:32:36.232Z,101561.38
2018-06-17T04:35:05.021Z,101564.16
2018-06-17T04:37:34.100Z,101570.42
2018-06-17T04:40:03.284Z,101575.96
2018-06-17T04:42:32.334Z,101569.34
2018-06-17T04:45:01.448Z,101572.52
2018-06-17T04:47:30.205Z,101562.42
2018-06-17T04:49:58.947Z,101567.00
2018-06-17T04:52:28.173Z,101565.42
2018-06-17T04:54:56.902Z,101565.20
2018-06-17T04:57:25.703Z,101571.23
2018-06-17T04:59:54.848Z,101563.33
2018-06-17T05:02:23.615Z,101564.75
2018-06-17T05:04:52.355Z,101567.05
2018-06-17T05:07:21.298Z,101565.39
2018-06-17T05:09:50.012Z,101567.23
2018-06-17T05:12:18.751Z,101555.87
2018-06-17T05:14:47.786Z,101560.17
2018-06-17T05:17:16.525Z,101558.98
2018-06-17T05:19:45.107Z,101561.56
2018-06-17T05:22:14.304Z,101556.25
2018-06-17T05:24:42.885Z,101561.09
2018-06-17T05:27:11.470Z,101561.02
2018-06-17T05:29:40.778Z,101565.77
2018-06-17T05:32:09.355Z,101571.23
2018-06-17T05:34:38.169Z,101569.58
2018-06-17T05:37:07.796Z,101570.59
2018-06-17T05:39:36.885Z,101563.48
2018-06-17T05:42:05.691Z,101557.08
2018-06-17T05:44:34.798Z,101561.53
2018-06-17T05:47:03.460Z,101566.33
2018-06-17T05:49:32.226Z,101567.30
2018-06-17T05:52:01.479Z,101570.45
2018-06-17T05:54:30.258Z,101571.78
2018-06-17T05:56:59.322Z,101577.01
2018-06-17T05:59:28.699Z,101578.34
2018-06-17T06:01:57.312Z,101574.39
2018-06-17T06:04:26.088Z,101570.82
2018-06-17T06:06:55.040Z,101571.23
2018-06-17T06:09:23.788Z,101578.70
2018-06-17T06:11:52.707Z,101578.52
2018-06-17T06:14:21.708Z,101579.37
2018-06-17T06:16:50.465Z,101571.96
2018-06-17T06:19:19.233Z,101578.19
2018-06-17T06:21:47.997Z,101577.94
2018-06-17T06:24:16.788Z,101576.11
2018-06-17T06:26:45.531Z,101578.86
2018-06-17T06:29:14.628Z,101576.50
2018-06-17T06:31:43.399Z,101579.84
2018-06-17T06:34:12.147Z,101576.92
2018-06-17T06:36:41.252Z,101576.34
2018-06-17T06:39:10.738Z,101569.83
2018-06-17T06:41:40.372Z,101582.25
2018-06-17T06:44:09.540Z,101568.44
2018-06-17T06:46:38.300Z,101579.11
2018-06-17T06:49:07.103Z,101578.90
2018-06-17T06:51:36.526Z,101578.73
2018-06-17T06:54:05.346Z,101573.58
2018-06-17T06:56:34.120Z,101579.61
2018-06-17T06:59:03.263Z,101575.53
2018-06-17T07:01:48.803Z,101579.34
2018-06-17T07:04:34.879Z,101580.88
2018-06-17T07:08:19.151Z,101585.16
2018-06-17T07:10:48.244Z,101579.20
2018-06-17T07:13:17.268Z,101575.19
2018-06-17T07:15:57.386Z,101576.59
2018-06-17T07:18:36.037Z,101580.67
2018-06-17T07:21:05.425Z,101583.36
2018-06-17T07:23:34.254Z,101576.58
2018-06-17T07:26:41.500Z,101583.51
2018-06-17T07:29:30.444Z,101577.65
2018-06-17T07:31:59.763Z,101578.36
2018-06-17T07:34:28.752Z,101578.94
2018-06-17T07:36:57.575Z,101581.16
2018-06-17T07:41:43.665Z,101578.80
2018-06-17T07:44:13.043Z,101589.89
2018-06-17T07:46:41.956Z,101583.56
2018-06-17T07:49:39.302Z,101582.28
2018-06-17T07:52:26.140Z,101577.77
2018-06-17T07:54:55.429Z,101585.05
2018-06-17T07:57:26.483Z,101587.06
2018-06-17T07:59:55.666Z,101588.91
2018-06-17T08:02:25.082Z,101593.43
2018-06-17T08:04:54.130Z,101598.28
2018-06-17T08:07:23.266Z,101601.28
2018-06-17T08:09:53.142Z,101603.64
2018-06-17T08:12:21.883Z,101602.01
2018-06-17T08:14:50.991Z,101601.90
2018-06-17T08:17:19.740Z,101597.38
2018-06-17T08:19:48.508Z,101586.86
2018-06-17T08:22:17.739Z,101599.31
2018-06-17T08:24:46.484Z,101598.06
2018-06-17T08:27:15.243Z,101602.66
2018-06-17T08:29:44.327Z,101601.61
2018-06-17T08:32:13.712Z,101593.49
2018-06-17T08:34:42.334Z,101604.58
2018-06-17T08:37:11.879Z,101602.55
2018-06-17T08:39:40.640Z,101602.69
2018-06-17T08:42:09.246Z,101600.34
2018-06-17T08:44:38.392Z,101592.53
2018-06-17T08:47:07.795Z,101598.25
2018-06-17T08:49:36.580Z,101606.66
2018-06-17T08:52:06.088Z,101609.59
2018-06-17T08:54:34.845Z,101611.78
2018-06-17T08:57:03.611Z,101619.42
2018-06-17T08:59:33.099Z,101610.98
2018-06-17T09:02:02.142Z,101608.42
2018-06-17T09:04:31.027Z,101603.72
2018-06-17T09:07:00.023Z,101613.75
2018-06-17T09:09:28.770Z,101620.28
2018-06-17T09:11:57.821Z,101618.09
2018-06-17T09:14:27.220Z,101616.37
2018-06-17T09:16:55.987Z,101615.43
2018-06-17T09:19:24.771Z,101610.73
2018-06-17T09:21:53.923Z,101618.09
2018-06-17T09:24:22.771Z,101623.02
2018-06-17T09:26:51.524Z,101629.15
2018-06-17T09:29:20.700Z,101628.39
2018-06-17T09:31:49.841Z,101626.92
2018-06-17T09:34:18.627Z,101629.41
2018-06-17T09:36:47.761Z,101630.05
2018-06-17T09:39:16.542Z,101636.84
2018-06-17T09:41:45.342Z,101629.03
2018-06-17T09:44:14.844Z,101631.78
2018-06-17T09:46:43.540Z,101626.11
2018-06-17T09:49:12.346Z,101625.11
2018-06-17T09:51:41.456Z,101634.13
2018-06-17T09:54:10.215Z,101631.36
2018-06-17T09:56:38.996Z,101639.73
2018-06-17T09:59:08.128Z,101638.11
2018-06-17T10:01:36.974Z,101650.53
2018-06-17T10:04:05.758Z,101638.85
2018-06-17T10:06:34.931Z,101642.66
2018-06-17T10:09:06.595Z,101639.80
2018-06-17T10:11:36.219Z,101640.13
2018-06-17T10:14:05.128Z,101643.33
2018-06-17T10:16:33.916Z,101639.92
2018-06-17T10:19:03.047Z,101646.00
2018-06-17T10:21:31.824Z,101636.82
2018-06-17T10:24:00.910Z,101643.52
2018-06-17T10:26:30.132Z,101647.21
2018-06-17T10:28:58.998Z,101640.23
2018-06-17T10:31:27.738Z,101637.92
2018-06-17T10:33:57.215Z,101645.18
2018-06-17T10:36:26.004Z,101639.98
2018-06-17T10:38:54.658Z,101648.23
2018-06-17T10:41:23.799Z,101636.11
2018-06-17T10:43:52.555Z,101651.47
2018-06-17T10:46:21.323Z,101636.95
2018-06-17T10:48:50.577Z,101638.98
2018-06-17T10:51:19.471Z,101645.79
2018-06-17T10:53:48.238Z,101650.63
2018-06-17T10:56:17.830Z,101651.25
2018-06-17T10:58:46.576Z,101650.58
2018-06-17T11:01:15.389Z,101655.66
2018-06-17T11:03:44.435Z,101641.92
2018-06-17T11:06:13.215Z,101650.34
2018-06-17T11:08:42.288Z,101655.09
2018-06-17T11:11:11.374Z,101660.85
2018-06-17T11:13:40.134Z,101661.92
2018-06-17T11:16:08.951Z,101665.73
2018-06-17T11:18:41.099Z,101660.48
2018-06-17T11:21:09.704Z,101655.25
2018-06-17T11:23:38.463Z,101653.38
2018-06-17T11:26:07.558Z,101652.81
2018-06-17T11:28:36.393Z,101655.17
2018-06-17T11:31:05.147Z,101654.72
2018-06-17T11:33:33.940Z,101661.16
2018-06-17T11:36:02.723Z,101647.02
2018-06-17T11:38:31.531Z,101662.34
2018-06-17T11:41:01.092Z,101651.07
2018-06-17T11:43:29.846Z,101657.16
2018-06-17T11:45:58.631Z,101658.65
2018-06-17T11:48:28.271Z,101663.58
2018-06-17T11:50:57.102Z,101663.63
2018-06-17T11:53:26.109Z,101670.34
2018-06-17T11:55:55.577Z,101658.91
2018-06-17T11:58:24.393Z,101664.31
2018-06-17T12:00:53.192Z,101669.51
2018-06-17T12:03:22.402Z,101662.67
2018-06-17T12:05:51.274Z,101673.45
2018-06-17T12:08:20.137Z,101669.41
2018-06-17T12:10:49.311Z,101673.33
2018-06-17T12:13:18.100Z,101679.31
2018-06-17T12:15:47.069Z,101675.66
2018-06-17T12:18:16.728Z,101681.20
2018-06-17T12:20:45.516Z,101682.42
2018-06-17T12:23:14.287Z,101678.61
2018-06-17T12:25:43.538Z,101679.52
2018-06-17T12:28:12.310Z,101687.39
2018-06-17T12:30:41.220Z,101680.59
2018-06-17T12:33:10.290Z,101678.55
2018-06-17T12:35:39.089Z,101680.82
2018-06-17T12:38:07.878Z,101685.41
2018-06-17T12:40:36.988Z,101687.02
2018-06-17T12:43:05.915Z,101691.64
2018-06-17T12:45:40.871Z,101689.44
2018-06-17T12:48:10.736Z,101690.55
2018-06-17T12:50:39.724Z,101691.34
2018-06-17T12:53:08.832Z,101700.27
2018-06-17T12:55:37.654Z,101698.42
2018-06-17T12:58:06.542Z,101696.36
2018-06-17T13:00:35.676Z,101705.25
2018-06-17T13:03:04.489Z,101708.20
2018-06-17T13:05:33.322Z,101704.28
2018-06-17T13:08:02.453Z,101708.09
2018-06-17T13:10:31.523Z,101711.69
2018-06-17T13:13:00.284Z,101712.19
2018-06-17T13:15:29.374Z,101712.06
2018-06-17T13:17:58.201Z,101716.61
2018-06-17T13:20:26.988Z,101719.10
2018-06-17T13:22:56.112Z,101719.03
2018-06-17T13:25:24.915Z,101711.55
2018-06-17T13:27:54.268Z,101715.16
2018-06-17T13:30:23.437Z,101709.94
2018-06-17T13:32:52.021Z,101710.83
2018-06-17T13:35:20.702Z,101722.13
2018-06-17T13:37:50.295Z,101719.39
2018-06-17T13:40:19.077Z,101719.73
2018-06-17T13:42:47.902Z,101718.73
2018-06-17T13:45:17.011Z,101718.27
2018-06-17T13:47:45.836Z,101715.17
2018-06-17T13:50:14.651Z,101729.38
2018-06-17T13:52:43.842Z,101731.27
2018-06-17T13:55:13.244Z,101727.74
2018-06-17T13:57:42.096Z,101738.98
2018-06-17T14:00:11.548Z,101731.78
2018-06-17T14:02:40.414Z,101738.04
2018-06-17T14:05:09.395Z,101739.80
2018-06-17T14:07:38.628Z,101741.30
2018-06-17T14:10:07.470Z,101741.33
2018-06-17T14:12:36.208Z,101742.84
2018-06-17T14:15:05.952Z,101744.41
2018-06-17T14:17:35.003Z,101746.66
2018-06-17T14:20:04.920Z,101747.58
2018-06-17T14:22:34.027Z,101746.44
2018-06-17T14:25:02.879Z,101745.43
2018-06-17T14:27:31.644Z,101752.09
2018-06-17T14:30:00.697Z,101754.16
2018-06-17T14:32:29.526Z,101759.05
2018-06-17T14:34:58.117Z,101757.89
2018-06-17T14:37:27.414Z,101760.12
2018-06-17T14:39:56.220Z,101754.47
2018-06-17T14:42:30.844Z,101761.42
2018-06-17T14:45:05.065Z,101762.83
2018-06-17T14:47:39.744Z,101764.64
2018-06-17T14:50:14.350Z,101765.71
2018-06-17T14:52:48.790Z,101759.05
2018-06-17T14:55:18.024Z,101762.22
2018-06-17T14:57:47.411Z,101764.09
2018-06-17T15:00:16.544Z,101773.04
2018-06-17T15:02:45.307Z,101767.38
2018-06-17T15:05:14.579Z,101765.16
2018-06-17T15:07:43.826Z,101769.11
2018-06-17T15:10:12.784Z,101773.38
2018-06-17T15:12:41.767Z,101775.78
2018-06-17T15:15:11.036Z,101778.34
2018-06-17T15:17:39.807Z,101780.08
2018-06-17T15:20:09.082Z,101785.17
2018-06-17T15:22:38.276Z,101788.14
2018-06-17T15:25:07.113Z,101788.23
2018-06-17T15:27:36.459Z,101785.67
2018-06-17T15:30:06.615Z,101781.81
2018-06-17T15:32:41.184Z,101789.83
2018-06-17T15:35:16.539Z,101789.77
2018-06-17T15:37:50.884Z,101790.20
2018-06-17T15:40:24.489Z,101792.98
2018-06-17T15:42:53.283Z,101788.86
2018-06-17T15:45:28.609Z,101792.64
2018-06-17T15:47:57.372Z,101792.75
2018-06-17T15:50:26.152Z,101793.92
2018-06-17T15:52:55.342Z,101798.01
2018-06-17T15:55:24.096Z,101791.52
2018-06-17T15:57:52.711Z,101796.04
2018-06-17T16:00:21.950Z,101795.85
2018-06-17T16:02:50.926Z,101788.59
2018-06-17T16:05:22.331Z,101795.13
2018-06-17T16:07:52.461Z,101786.19
2018-06-17T16:10:21.090Z,101795.23
2018-06-17T16:12:55.723Z,101801.27
2018-06-17T16:16:27.507Z,101798.72
2018-06-17T16:19:02.117Z,101801.81
2018-06-17T16:21:30.888Z,101793.08
2018-06-17T16:23:59.662Z,101797.22
2018-06-17T16:26:28.501Z,101791.45
2018-06-17T16:28:57.573Z,101787.56
2018-06-17T16:31:26.318Z,101787.31
2018-06-17T16:33:55.124Z,101797.88
2018-06-17T16:36:23.874Z,101791.69
2018-06-17T16:38:52.708Z,101787.70
2018-06-17T16:41:21.953Z,101783.08
2018-06-17T16:43:50.715Z,101779.56
2018-06-17T16:46:19.846Z,101786.53
2018-06-17T16:48:48.927Z,101787.19
2018-06-17T16:51:23.256Z,101789.25
2018-06-17T16:53:57.775Z,101792.03
2018-06-17T16:56:32.054Z,101793.42
2018-06-17T16:59:06.550Z,101798.14
2018-06-17T17:01:35.484Z,101797.73
2018-06-17T17:04:04.268Z,101802.56
2018-06-17T17:06:33.516Z,101803.42
2018-06-17T17:09:02.701Z,101803.63
2018-06-17T17:11:31.851Z,101815.25
2018-06-17T17:14:01.095Z,101813.32
2018-06-17T17:16:29.837Z,101821.48
2018-06-17T17:18:58.889Z,101825.31
2018-06-17T17:21:27.970Z,101828.99
2018-06-17T17:23:56.765Z,101823.56
2018-06-17T17:26:25.572Z,101831.09
2018-06-17T17:28:54.944Z,101834.75
2018-06-17T17:31:24.174Z,101838.67
2018-06-17T17:33:58.876Z,101837.36
2018-06-17T17:36:33.142Z,101838.45
2018-06-17T17:39:07.840Z,101840.59
2018-06-17T17:41:36.937Z,101840.77
2018-06-17T17:44:05.852Z,101838.44
2018-06-17T17:46:40.408Z,101847.37
2018-06-17T17:49:09.296Z,101846.00
2018-06-17T17:51:38.072Z,101851.75
2018-06-17T17:54:07.700Z,101845.44
2018-06-17T17:56:37.048Z,101835.89
2018-06-17T17:59:06.100Z,101833.84
2018-06-17T18:01:35.283Z,101831.70
2018-06-17T18:04:04.062Z,101828.20
2018-06-17T18:06:32.733Z,101826.77
2018-06-17T18:09:01.914Z,101832.27
2018-06-17T18:11:30.672Z,101837.11
2018-06-17T18:13:59.523Z,101831.02
2018-06-17T18:16:28.584Z,101839.89
2018-06-17T18:18:57.340Z,101841.88
2018-06-17T18:21:26.211Z,101841.85
2018-06-17T18:23:55.365Z,101852.20
2018-06-17T18:26:29.562Z,101854.13
2018-06-17T18:29:03.917Z,101850.04
2018-06-17T18:31:38.118Z,101858.55
2018-06-17T18:34:12.519Z,101847.83
2018-06-17T18:36:48.358Z,101856.56
2018-06-17T18:39:17.429Z,101857.20
2018-06-17T18:41:46.236Z,101862.52
2018-06-17T18:44:14.971Z,101861.77
2018-06-17T18:46:43.771Z,101866.16
2018-06-17T18:49:12.571Z,101858.78
2018-06-17T18:51:41.595Z,101867.14
2018-06-17T18:54:10.842Z,101866.09
2018-06-17T18:56:39.629Z,101864.14
2018-06-17T18:59:08.454Z,101867.13
2018-06-17T19:01:47.660Z,101870.16
2018-06-17T19:04:16.517Z,101874.09
2018-06-17T19:06:45.484Z,101872.03
2018-06-17T19:09:20.272Z,101866.45
2018-06-17T19:11:54.892Z,101869.73
2018-06-17T19:14:29.627Z,101869.45
2018-06-17T19:17:04.063Z,101872.47
2018-06-17T19:19:33.144Z,101874.03
2018-06-17T19:22:01.967Z,101877.98
2018-06-17T19:24:30.892Z,101868.42
2018-06-17T19:26:59.960Z,101880.12
2018-06-17T19:29:28.799Z,101876.09
2018-06-17T19:31:57.559Z,101878.55
2018-06-17T19:34:26.644Z,101881.85
2018-06-17T19:36:55.751Z,101888.28
2018-06-17T19:39:24.518Z,101888.86
2018-06-17T19:41:53.593Z,101891.66
2018-06-17T19:44:22.365Z,101896.12
2018-06-17T19:46:51.134Z,101890.95
2018-06-17T19:49:24.547Z,101891.28
2018-06-17T19:51:58.891Z,101887.70
2018-06-17T19:54:33.771Z,101884.17
2018-06-17T19:57:08.034Z,101884.47
2018-06-17T19:59:42.794Z,101884.47
2018-06-17T20:02:11.565Z,101896.30
2018-06-17T20:04:40.369Z,101900.33
2018-06-17T20:07:09.279Z,101896.36
2018-06-17T20:09:38.785Z,101904.42
2018-06-17T20:12:07.699Z,101907.55
2018-06-17T20:14:36.764Z,101919.88
2018-06-17T20:17:05.354Z,101924.08
2018-06-17T20:19:33.994Z,101933.55
2018-06-17T20:22:02.915Z,101935.55
2018-06-17T20:24:31.704Z,101942.73
2018-06-17T20:27:00.462Z,101959.57
2018-06-17T20:29:29.559Z,101965.73
2018-06-17T20:32:03.768Z,101964.45
2018-06-17T20:35:39.025Z,101961.38
2018-06-17T20:38:13.399Z,101968.81
2018-06-17T20:40:48.078Z,101966.73
2018-06-17T20:43:22.867Z,101970.95
2018-06-17T20:45:58.408Z,101979.83
2018-06-17T20:48:27.231Z,101981.21
2018-06-17T20:50:56.008Z,101981.84
2018-06-17T20:53:25.137Z,101984.42
2018-06-17T20:55:54.231Z,101989.35
2018-06-17T20:58:23.231Z,101990.42
2018-06-17T21:00:52.531Z,101983.98
2018-06-17T21:03:21.353Z,101985.48
2018-06-17T21:05:50.067Z,101986.98
2018-06-17T21:08:19.164Z,101984.91
2018-06-17T21:10:47.945Z,101988.09
2018-06-17T21:13:16.717Z,101987.35
2018-06-17T21:15:45.537Z,101991.05
2018-06-17T21:18:18.828Z,101991.92
2018-06-17T21:20:53.263Z,101998.50
2018-06-17T21:23:27.635Z,101996.28
2018-06-17T21:26:02.384Z,101993.38
2018-06-17T21:28:31.172Z,101983.47
2018-06-17T21:30:59.984Z,101993.20
2018-06-17T21:33:29.122Z,101984.24
2018-06-17T21:35:57.956Z,101979.73
2018-06-17T21:38:27.368Z,101987.69
2018-06-17T21:40:56.351Z,101988.48
2018-06-17T21:43:25.187Z,101989.23
2018-06-17T21:46:00.239Z,101993.94
2018-06-17T21:48:29.008Z,101996.00
2018-06-17T21:50:58.026Z,101999.95
2018-06-17T21:53:27.221Z,101999.27
2018-06-17T21:55:55.999Z,102004.06
2018-06-17T21:58:58.080Z,101995.24
2018-06-17T22:01:26.864Z,101998.11
2018-06-17T22:04:00.519Z,101998.80
2018-06-17T22:06:29.294Z,102001.56
2018-06-17T22:09:04.583Z,101998.06
2018-06-17T22:11:38.963Z,101993.91
2018-06-17T22:14:13.543Z,101993.61
2018-06-17T22:16:47.928Z,101987.86
2018-06-17T22:19:17.067Z,101993.30
2018-06-17T22:21:45.831Z,101983.16
2018-06-17T22:24:14.679Z,101978.33
2018-06-17T22:26:43.848Z,101973.09
2018-06-17T22:29:12.607Z,101977.16
2018-06-17T22:31:41.400Z,101985.98
2018-06-17T22:34:10.627Z,101979.85
2018-06-17T22:36:39.458Z,101983.50
2018-06-17T22:39:08.929Z,101984.48
2018-06-17T22:41:38.416Z,101984.29
2018-06-17T22:44:07.260Z,101984.78
2018-06-17T22:46:36.257Z,101987.30
2018-06-17T22:49:05.972Z,101985.30
2018-06-17T22:51:34.576Z,101984.78
2018-06-17T22:54:20.631Z,101983.78
2018-06-17T22:56:54.951Z,101987.73
2018-06-17T22:59:29.763Z,101984.92
2018-06-17T23:02:04.161Z,101985.91
2018-06-17T23:04:38.827Z,101984.72
2018-06-17T23:07:13.216Z,101978.77
2018-06-17T23:09:45.317Z,101990.85
2018-06-17T23:12:14.112Z,101994.36
2018-06-17T23:14:42.927Z,101994.24
2018-06-17T23:17:12.315Z,101989.59
2018-06-17T23:19:41.374Z,101987.92
2018-06-17T23:22:10.243Z,101997.67
2018-06-17T23:24:39.338Z,101999.88
2018-06-17T23:27:08.113Z,101997.16
2018-06-17T23:29:37.251Z,102008.67
2018-06-17T23:32:06.097Z,102018.16
2018-06-17T23:34:34.967Z,102026.24
2018-06-17T23:37:03.814Z,102020.97
2018-06-17T23:39:32.647Z,102022.28
2018-06-17T23:42:01.395Z,102018.08
2018-06-17T23:44:30.455Z,102020.91
2018-06-17T23:47:05.241Z,102030.24
2018-06-17T23:49:39.987Z,102034.74
2018-06-17T23:52:14.891Z,102030.17
2018-06-17T23:54:49.244Z,102029.44
2018-06-17T23:57:18.411Z,102024.47
2018-06-17T23:59:47.191Z,102014.46
